Time;durP1;ratioP1;P1;durP2;ratioP2;P2;SDS_P1;SDS_P2;PMS_P1;PMS_P2;Temp;Humidity;BMP_temperature;BMP_pressure;BME280_temperature;BME280_humidity;BME280_pressure;Samples;Min_cycle;Max_cycle;Signal;HPM_P1;HPM_P2
2023/07/06 00:01:48;;;;;;;;;;;22.30;46.90;;;;;;5038530;28;19920;-57
2023/07/06 00:04:15;;;;;;;;;;;22.30;47.00;;;;;;5041910;28;19920;-56
2023/07/06 00:06:41;;;;;;;;;;;22.30;46.90;;;;;;5040690;28;19921;-57
2023/07/06 00:09:08;;;;;;;;;;;22.30;46.90;;;;;;5040428;28;19951;-57
2023/07/06 00:11:38;;;;;;;;;;;22.30;46.90;;;;;;5038557;28;19925;-57
2023/07/06 00:14:06;;;;;;;;;;;22.30;46.90;;;;;;5024306;28;19920;-57
2023/07/06 00:16:33;;;;;;;;;;;22.30;47.00;;;;;;5039985;28;19925;-53
2023/07/06 00:19:01;;;;;;;;;;;22.30;46.90;;;;;;5041543;28;19932;-56
2023/07/06 00:21:29;;;;;;;;;;;22.20;46.80;;;;;;5037240;28;20135;-56
2023/07/06 00:23:57;;;;;;;;;;;22.30;46.90;;;;;;5040323;28;20007;-56
2023/07/06 00:26:23;;;;;;;;;;;22.30;46.90;;;;;;5052403;28;19924;-56
2023/07/06 00:28:50;;;;;;;;;;;22.30;46.90;;;;;;5040728;28;19925;-55
2023/07/06 00:31:31;;;;;;;;;;;22.30;46.90;;;;;;5055312;28;20492;-56
2023/07/06 00:34:03;;;;;;;;;;;22.20;46.80;;;;;;5035288;28;20022;-55
2023/07/06 00:36:31;;;;;;;;;;;22.30;46.90;;;;;;5037383;28;19924;-56
2023/07/06 00:39:01;;;;;;;;;;;22.30;46.90;;;;;;5055871;28;19920;-56
2023/07/06 00:41:28;;;;;;;;;;;22.30;46.90;;;;;;5058114;28;20022;-57
2023/07/06 00:43:55;;;;;;;;;;;22.30;46.90;;;;;;5040537;28;19921;-52
2023/07/06 00:46:22;;;;;;;;;;;22.20;46.80;;;;;;5043190;28;19924;-56
2023/07/06 00:48:49;;;;;;;;;;;22.20;46.80;;;;;;5039853;28;19924;-56
2023/07/06 00:51:17;;;;;;;;;;;22.20;46.80;;;;;;5039858;28;19925;-56
2023/07/06 00:53:46;;;;;;;;;;;22.20;46.80;;;;;;5041257;28;20010;-55
2023/07/06 00:56:13;;;;;;;;;;;22.20;46.80;;;;;;5054465;28;19920;-56
2023/07/06 00:58:41;;;;;;;;;;;22.20;46.80;;;;;;5042077;28;19921;-57
2023/07/06 01:01:09;;;;;;;;;;;22.20;46.80;;;;;;5040693;28;19921;-56
2023/07/06 01:03:44;;;;;;;;;;;22.20;46.80;;;;;;5041284;28;19967;-56
2023/07/06 01:06:11;;;;;;;;;;;22.20;46.80;;;;;;5041888;28;20011;-56
2023/07/06 01:08:37;;;;;;;;;;;22.20;46.80;;;;;;5044950;28;19920;-54
2023/07/06 01:11:08;;;;;;;;;;;22.20;46.80;;;;;;5040043;28;19933;-55
2023/07/06 01:13:34;;;;;;;;;;;22.20;46.80;;;;;;5042373;28;19928;-57
2023/07/06 01:16:02;;;;;;;;;;;22.20;46.80;;;;;;5062630;28;19931;-54
2023/07/06 01:18:32;;;;;;;;;;;22.20;46.80;;;;;;5037169;28;19920;-56
2023/07/06 01:21:02;;;;;;;;;;;22.20;46.80;;;;;;5054358;28;20391;-54
2023/07/06 01:23:47;;;;;;;;;;;22.20;46.80;;;;;;5058331;28;19964;-55
2023/07/06 01:26:22;;;;;;;;;;;22.10;46.70;;;;;;5055500;28;19966;-56
2023/07/06 01:29:01;;;;;;;;;;;22.20;46.80;;;;;;5042412;28;19920;-56
2023/07/06 01:31:35;;;;;;;;;;;22.10;46.80;;;;;;5038474;28;19928;-55
2023/07/06 01:34:02;;;;;;;;;;;22.20;46.80;;;;;;5042410;28;19925;-56
2023/07/06 01:36:33;;;;;;;;;;;22.10;46.70;;;;;;5057505;28;20020;-56
2023/07/06 01:39:16;;;;;;;;;;;22.10;46.70;;;;;;5039747;28;20255;-56
2023/07/06 01:41:42;;;;;;;;;;;22.20;46.80;;;;;;5040358;28;19925;-54
2023/07/06 01:44:09;;;;;;;;;;;22.20;46.80;;;;;;5042842;28;19970;-54
2023/07/06 01:46:38;;;;;;;;;;;22.20;46.80;;;;;;5037637;28;19978;-54
2023/07/06 01:49:05;;;;;;;;;;;22.20;46.80;;;;;;5040623;28;19920;-55
2023/07/06 01:51:33;;;;;;;;;;;22.20;46.80;;;;;;5040467;28;19929;-56
2023/07/06 01:54:00;;;;;;;;;;;22.20;46.80;;;;;;5057945;28;19921;-56
2023/07/06 01:56:29;;;;;;;;;;;22.20;46.80;;;;;;5037922;28;19921;-56
2023/07/06 01:58:58;;;;;;;;;;;22.20;46.80;;;;;;5042223;28;20047;-56
2023/07/06 02:01:25;;;;;;;;;;;22.20;46.80;;;;;;5058123;28;19974;-55
2023/07/06 02:03:54;;;;;;;;;;;22.20;46.80;;;;;;5055049;28;20317;-53
2023/07/06 02:06:20;;;;;;;;;;;22.10;46.70;;;;;;5037089;28;19921;-56
2023/07/06 02:08:48;;;;;;;;;;;22.10;46.70;;;;;;5039601;28;19920;-56
2023/07/06 02:11:15;;;;;;;;;;;22.10;46.80;;;;;;5040762;28;19920;-54
2023/07/06 02:13:41;;;;;;;;;;;22.10;46.80;;;;;;5037940;28;20041;-55
2023/07/06 02:16:09;;;;;;;;;;;22.10;46.80;;;;;;5040840;28;19974;-55
2023/07/06 02:18:36;;;;;;;;;;;22.10;46.70;;;;;;5039366;28;20363;-56
2023/07/06 02:21:04;;;;;;;;;;;22.10;46.80;;;;;;5059042;28;19932;-54
2023/07/06 02:23:32;;;;;;;;;;;22.10;46.70;;;;;;5046958;28;19936;-53
2023/07/06 02:25:59;;;;;;;;;;;22.10;46.70;;;;;;5045383;28;19928;-55
2023/07/06 02:28:26;;;;;;;;;;;22.10;46.80;;;;;;5045797;28;19927;-56
2023/07/06 02:30:53;;;;;;;;;;;22.10;46.80;;;;;;5041674;28;19978;-54
2023/07/06 02:33:20;;;;;;;;;;;22.10;46.80;;;;;;5043265;28;19921;-56
2023/07/06 02:35:47;;;;;;;;;;;22.10;46.70;;;;;;5043943;28;19932;-56
2023/07/06 02:38:16;;;;;;;;;;;22.10;46.70;;;;;;5058364;28;19925;-55
2023/07/06 02:40:43;;;;;;;;;;;22.10;46.80;;;;;;5061122;28;19924;-51
2023/07/06 02:43:09;;;;;;;;;;;22.10;46.80;;;;;;5037828;28;19975;-57
2023/07/06 02:45:36;;;;;;;;;;;22.10;47.30;;;;;;5036428;28;19924;-56
2023/07/06 02:48:04;;;;;;;;;;;22.10;46.80;;;;;;5036075;28;19925;-54
2023/07/06 02:50:31;;;;;;;;;;;22.10;46.80;;;;;;5040762;28;20248;-56
2023/07/06 02:52:58;;;;;;;;;;;22.10;46.80;;;;;;5040209;28;19924;-56
2023/07/06 02:55:27;;;;;;;;;;;22.10;46.80;;;;;;5063793;28;19921;-54
2023/07/06 02:57:55;;;;;;;;;;;22.10;46.80;;;;;;5038682;28;19920;-56
2023/07/06 03:00:23;;;;;;;;;;;22.10;46.90;;;;;;5040851;28;19929;-55
2023/07/06 03:02:51;;;;;;;;;;;22.10;46.80;;;;;;5042342;28;19967;-55
2023/07/06 03:05:22;;;;;;;;;;;22.10;46.80;;;;;;5057807;28;19943;-56
2023/07/06 03:07:51;;;;;;;;;;;22.10;46.80;;;;;;5044825;28;19925;-56
2023/07/06 03:10:19;;;;;;;;;;;22.10;46.80;;;;;;5041421;28;20009;-56
2023/07/06 03:12:48;;;;;;;;;;;22.10;46.80;;;;;;5037726;28;19944;-56
2023/07/06 03:15:15;;;;;;;;;;;22.10;46.80;;;;;;5040259;28;20008;-55
2023/07/06 03:17:42;;;;;;;;;;;22.10;46.90;;;;;;5062563;28;19921;-53
2023/07/06 03:20:14;;;;;;;;;;;22.10;46.80;;;;;;5037767;28;19929;-54
2023/07/06 03:22:40;;;;;;;;;;;22.10;46.80;;;;;;5045110;28;19958;-56
2023/07/06 03:25:09;;;;;;;;;;;22.10;46.80;;;;;;5042380;28;19920;-56
2023/07/06 03:27:37;;;;;;;;;;;22.10;46.80;;;;;;5042404;28;19920;-56
2023/07/06 03:30:07;;;;;;;;;;;22.10;46.80;;;;;;5041910;28;19955;-52
2023/07/06 03:32:37;;;;;;;;;;;22.10;46.80;;;;;;5054430;28;20278;-55
2023/07/06 03:35:05;;;;;;;;;;;22.10;46.80;;;;;;5043185;28;19925;-55
2023/07/06 03:37:32;;;;;;;;;;;22.10;46.80;;;;;;5037564;28;19920;-54
2023/07/06 03:39:59;;;;;;;;;;;22.10;46.80;;;;;;5044568;28;19925;-56
2023/07/06 03:42:26;;;;;;;;;;;22.10;46.80;;;;;;5040550;28;19995;-53
2023/07/06 03:44:55;;;;;;;;;;;22.10;46.80;;;;;;5043005;28;20038;-51
2023/07/06 03:47:26;;;;;;;;;;;22.10;46.80;;;;;;5042159;28;19925;-54
2023/07/06 03:49:53;;;;;;;;;;;22.10;46.80;;;;;;5058533;28;19928;-56
2023/07/06 03:52:22;;;;;;;;;;;22.00;46.80;;;;;;5038493;28;19924;-55
2023/07/06 03:54:49;;;;;;;;;;;22.10;46.80;;;;;;5039798;28;19921;-53
2023/07/06 03:57:16;;;;;;;;;;;22.10;46.90;;;;;;5042191;28;20008;-54
2023/07/06 03:59:43;;;;;;;;;;;22.10;46.80;;;;;;5040374;28;19921;-56
2023/07/06 04:02:10;;;;;;;;;;;22.00;46.80;;;;;;5060494;28;19933;-53
2023/07/06 04:04:39;;;;;;;;;;;22.10;46.90;;;;;;5042723;28;19924;-54
2023/07/06 04:07:07;;;;;;;;;;;22.00;46.80;;;;;;5038690;28;19927;-53
2023/07/06 04:09:36;;;;;;;;;;;22.00;46.80;;;;;;5044082;28;20298;-55
2023/07/06 04:12:03;;;;;;;;;;;22.00;46.80;;;;;;5040819;28;19921;-55
2023/07/06 04:14:29;;;;;;;;;;;22.10;46.90;;;;;;5039477;28;19932;-57
2023/07/06 04:16:56;;;;;;;;;;;22.00;46.90;;;;;;5045630;28;20232;-56
2023/07/06 04:19:23;;;;;;;;;;;22.00;46.90;;;;;;5050095;28;19921;-55
2023/07/06 04:21:51;;;;;;;;;;;22.00;46.90;;;;;;5048848;28;19978;-54
2023/07/06 04:24:18;;;;;;;;;;;22.00;46.90;;;;;;5061477;28;19924;-53
2023/07/06 04:26:46;;;;;;;;;;;22.10;47.00;;;;;;5048087;28;19921;-55
2023/07/06 04:29:13;;;;;;;;;;;22.00;47.00;;;;;;5041145;28;19967;-50
2023/07/06 04:31:39;;;;;;;;;;;22.00;46.90;;;;;;5065731;28;19990;-57
2023/07/06 04:34:06;;;;;;;;;;;22.10;47.00;;;;;;5048044;28;19982;-56
2023/07/06 04:36:33;;;;;;;;;;;22.00;47.00;;;;;;5054171;28;19931;-56
2023/07/06 04:39:04;;;;;;;;;;;22.00;47.00;;;;;;5058758;28;19921;-53
2023/07/06 04:41:31;;;;;;;;;;;22.00;47.00;;;;;;5064434;28;20016;-56
2023/07/06 04:43:58;;;;;;;;;;;22.00;47.00;;;;;;5044353;28;19962;-56
2023/07/06 04:46:25;;;;;;;;;;;22.00;47.00;;;;;;5040116;28;19921;-57
2023/07/06 04:48:53;;;;;;;;;;;22.00;47.00;;;;;;5065876;28;19933;-57
2023/07/06 04:51:20;;;;;;;;;;;22.00;47.00;;;;;;5060248;28;19921;-57
2023/07/06 04:53:48;;;;;;;;;;;22.00;47.00;;;;;;5044708;28;19927;-56
2023/07/06 04:56:16;;;;;;;;;;;22.00;47.00;;;;;;5045545;28;19920;-56
2023/07/06 04:58:45;;;;;;;;;;;22.00;47.00;;;;;;5043867;28;19921;-56
2023/07/06 05:01:11;;;;;;;;;;;22.00;47.00;;;;;;5056607;28;19932;-54
2023/07/06 05:03:38;;;;;;;;;;;22.00;47.10;;;;;;5043662;28;19927;-58
2023/07/06 05:06:05;;;;;;;;;;;22.00;47.10;;;;;;5040900;28;20460;-56
2023/07/06 05:08:33;;;;;;;;;;;22.00;47.10;;;;;;5043511;28;19975;-56
2023/07/06 05:11:03;;;;;;;;;;;22.00;47.10;;;;;;5043450;28;19921;-56
2023/07/06 05:13:31;;;;;;;;;;;22.00;47.10;;;;;;5044426;28;19943;-56
2023/07/06 05:15:58;;;;;;;;;;;22.00;47.10;;;;;;5039943;28;19925;-57
2023/07/06 05:18:25;;;;;;;;;;;22.00;47.20;;;;;;5040210;28;20338;-55
2023/07/06 05:20:53;;;;;;;;;;;22.00;47.20;;;;;;5042876;28;19932;-56
2023/07/06 05:23:20;;;;;;;;;;;22.00;47.20;;;;;;5036011;28;19920;-60
2023/07/06 05:25:47;;;;;;;;;;;22.00;47.10;;;;;;5038974;28;20270;-60
2023/07/06 05:28:19;;;;;;;;;;;22.00;47.20;;;;;;5039234;28;20383;-55
2023/07/06 05:30:47;;;;;;;;;;;22.00;47.20;;;;;;5044323;28;19926;-55
2023/07/06 05:33:14;;;;;;;;;;;22.10;47.30;;;;;;5030931;28;19929;-54
2023/07/06 05:35:41;;;;;;;;;;;22.10;47.30;;;;;;5038567;28;19921;-54
2023/07/06 05:38:10;;;;;;;;;;;22.00;47.20;;;;;;5032006;28;19952;-55
2023/07/06 05:40:37;;;;;;;;;;;22.00;47.30;;;;;;5054117;28;19966;-57
2023/07/06 05:43:03;;;;;;;;;;;22.10;47.40;;;;;;5049821;28;20322;-56
2023/07/06 05:45:30;;;;;;;;;;;22.10;47.40;;;;;;5052454;28;19928;-56
2023/07/06 05:47:58;;;;;;;;;;;22.10;47.50;;;;;;5040151;28;19920;-56
2023/07/06 05:50:25;;;;;;;;;;;22.00;47.40;;;;;;5042114;28;19990;-55
2023/07/06 05:52:52;;;;;;;;;;;22.10;47.60;;;;;;5039797;28;19921;-56
2023/07/06 05:55:19;;;;;;;;;;;22.00;47.50;;;;;;5037300;28;19974;-54
2023/07/06 05:57:46;;;;;;;;;;;22.00;47.50;;;;;;5035077;28;19920;-56
2023/07/06 06:00:15;;;;;;;;;;;22.00;47.50;;;;;;5039205;28;20042;-54
2023/07/06 06:02:44;;;;;;;;;;;22.00;47.60;;;;;;5054240;28;19932;-57
2023/07/06 06:05:13;;;;;;;;;;;22.00;47.50;;;;;;5050613;28;19932;-56
2023/07/06 06:07:40;;;;;;;;;;;22.00;47.50;;;;;;5051500;28;19933;-56
2023/07/06 06:10:08;;;;;;;;;;;22.00;47.60;;;;;;5036167;28;19956;-55
2023/07/06 06:12:35;;;;;;;;;;;22.00;47.60;;;;;;5058447;28;19929;-56
2023/07/06 06:15:02;;;;;;;;;;;22.00;47.60;;;;;;5032275;28;20006;-54
2023/07/06 06:17:29;;;;;;;;;;;22.00;47.60;;;;;;5032682;28;19924;-55
2023/07/06 06:19:56;;;;;;;;;;;22.00;47.60;;;;;;5017746;28;19993;-56
2023/07/06 06:22:25;;;;;;;;;;;22.00;47.60;;;;;;5036207;28;19925;-56
2023/07/06 06:24:52;;;;;;;;;;;22.00;47.60;;;;;;5035272;28;19947;-57
2023/07/06 06:27:19;;;;;;;;;;;22.00;47.60;;;;;;5054242;28;19924;-54
2023/07/06 06:29:46;;;;;;;;;;;22.10;47.70;;;;;;5032107;28;20021;-53
2023/07/06 06:32:13;;;;;;;;;;;22.10;48.30;;;;;;5030852;28;19925;-52
2023/07/06 06:34:41;;;;;;;;;;;22.00;47.70;;;;;;5050764;28;19927;-59
2023/07/06 06:37:09;;;;;;;;;;;22.10;47.70;;;;;;5033642;28;19982;-55
2023/07/06 06:39:37;;;;;;;;;;;22.10;47.70;;;;;;5032743;28;19974;-57
2023/07/06 06:42:04;;;;;;;;;;;22.10;47.70;;;;;;5033602;28;19978;-55
2023/07/06 06:44:31;;;;;;;;;;;22.10;47.80;;;;;;5033073;28;19927;-55
2023/07/06 06:46:58;;;;;;;;;;;22.10;47.80;;;;;;5032970;28;20432;-56
2023/07/06 06:49:25;;;;;;;;;;;22.10;47.80;;;;;;5038338;28;19920;-55
2023/07/06 06:51:52;;;;;;;;;;;22.10;47.80;;;;;;5033065;28;19921;-59
2023/07/06 06:54:19;;;;;;;;;;;22.10;47.80;;;;;;5032543;28;19932;-57
2023/07/06 06:56:49;;;;;;;;;;;22.10;47.70;;;;;;5040082;28;19936;-56
2023/07/06 06:59:16;;;;;;;;;;;22.10;47.70;;;;;;5039316;28;20271;-58
2023/07/06 07:01:43;;;;;;;;;;;22.10;47.70;;;;;;5035894;28;20318;-56
2023/07/06 07:04:10;;;;;;;;;;;22.10;47.70;;;;;;5041358;28;19924;-58
2023/07/06 07:06:38;;;;;;;;;;;22.20;47.80;;;;;;5034866;28;19924;-58
2023/07/06 07:09:05;;;;;;;;;;;22.20;47.90;;;;;;5057123;28;19924;-58
2023/07/06 07:11:32;;;;;;;;;;;22.20;47.90;;;;;;5057757;28;19920;-56
2023/07/06 07:14:00;;;;;;;;;;;22.20;47.90;;;;;;5040732;28;20317;-58
2023/07/06 07:16:27;;;;;;;;;;;22.20;47.90;;;;;;5040804;28;19926;-54
2023/07/06 07:18:54;;;;;;;;;;;22.20;47.90;;;;;;5040742;28;19921;-57
2023/07/06 07:21:21;;;;;;;;;;;22.20;47.90;;;;;;5042331;28;19933;-56
2023/07/06 07:23:48;;;;;;;;;;;22.20;47.90;;;;;;5036067;28;19921;-57
2023/07/06 07:26:15;;;;;;;;;;;22.20;47.80;;;;;;5055843;28;19925;-51
2023/07/06 07:28:42;;;;;;;;;;;22.20;47.80;;;;;;5040665;28;19920;-56
2023/07/06 07:31:11;;;;;;;;;;;22.20;47.70;;;;;;5034829;28;20070;-57
2023/07/06 07:33:38;;;;;;;;;;;22.20;47.70;;;;;;5035970;28;19968;-58
2023/07/06 07:36:05;;;;;;;;;;;22.20;47.70;;;;;;5044618;28;19932;-57
2023/07/06 07:38:33;;;;;;;;;;;22.20;47.60;;;;;;5056895;28;19924;-58
2023/07/06 07:41:00;;;;;;;;;;;22.20;47.60;;;;;;5038637;28;19924;-57
2023/07/06 07:43:27;;;;;;;;;;;22.20;47.50;;;;;;5057763;28;20382;-58
2023/07/06 07:45:55;;;;;;;;;;;22.20;47.60;;;;;;5037431;28;19924;-55
2023/07/06 07:48:24;;;;;;;;;;;22.20;47.40;;;;;;5040993;28;19972;-57
2023/07/06 07:50:51;;;;;;;;;;;22.10;47.30;;;;;;5042633;28;19920;-56
2023/07/06 07:53:18;;;;;;;;;;;22.20;47.30;;;;;;5041374;28;20007;-57
2023/07/06 07:55:45;;;;;;;;;;;22.20;47.20;;;;;;5037966;28;20451;-56
2023/07/06 07:58:12;;;;;;;;;;;22.10;47.00;;;;;;5039455;28;19920;-57
2023/07/06 08:00:39;;;;;;;;;;;22.20;47.00;;;;;;5035146;28;19925;-58
2023/07/06 08:03:06;;;;;;;;;;;22.20;47.00;;;;;;5042276;28;19956;-58
2023/07/06 08:05:36;;;;;;;;;;;22.20;46.90;;;;;;5041071;28;19943;-57
2023/07/06 08:08:05;;;;;;;;;;;22.20;46.90;;;;;;5038706;28;19970;-57
2023/07/06 08:10:35;;;;;;;;;;;22.20;47.40;;;;;;5039426;28;19943;-58
2023/07/06 08:13:02;;;;;;;;;;;22.20;46.80;;;;;;5042381;28;19932;-55
2023/07/06 08:15:29;;;;;;;;;;;22.10;46.70;;;;;;5037791;28;20011;-55
2023/07/06 08:17:59;;;;;;;;;;;22.20;46.80;;;;;;5037268;28;20039;-57
2023/07/06 08:20:28;;;;;;;;;;;22.20;46.70;;;;;;5058668;28;20290;-57
2023/07/06 08:22:57;;;;;;;;;;;22.20;46.70;;;;;;5038705;28;19959;-55
2023/07/06 08:25:28;;;;;;;;;;;22.20;46.70;;;;;;5055285;28;20435;-57
2023/07/06 08:27:55;;;;;;;;;;;22.20;46.70;;;;;;5053739;28;19925;-57
2023/07/06 08:30:22;;;;;;;;;;;22.20;46.70;;;;;;5033713;28;20038;-56
2023/07/06 08:32:49;;;;;;;;;;;22.20;46.70;;;;;;5052033;28;19927;-56
2023/07/06 08:35:17;;;;;;;;;;;22.20;46.70;;;;;;5061839;28;19947;-56
2023/07/06 08:37:43;;;;;;;;;;;22.20;46.70;;;;;;5053850;28;19940;-54
2023/07/06 08:40:12;;;;;;;;;;;22.20;46.70;;;;;;5049283;28;19979;-57
2023/07/06 08:42:39;;;;;;;;;;;22.10;47.10;;;;;;5055447;28;19925;-56
2023/07/06 08:45:06;;;;;;;;;;;22.20;46.60;;;;;;5052079;28;19978;-53
2023/07/06 08:47:33;;;;;;;;;;;22.10;46.60;;;;;;5036724;28;19932;-57
2023/07/06 08:50:02;;;;;;;;;;;22.20;46.50;;;;;;5036354;28;19921;-49
2023/07/06 08:52:29;;;;;;;;;;;22.20;46.50;;;;;;5036402;28;20011;-56
2023/07/06 08:54:56;;;;;;;;;;;22.20;46.40;;;;;;5038741;28;19921;-56
2023/07/06 08:57:25;;;;;;;;;;;22.20;46.30;;;;;;5042151;28;19931;-54
2023/07/06 08:59:52;;;;;;;;;;;22.20;46.40;;;;;;5031504;28;20356;-57
2023/07/06 09:02:20;;;;;;;;;;;22.20;46.30;;;;;;5038621;28;19921;-57
2023/07/06 09:04:47;;;;;;;;;;;22.20;46.20;;;;;;5036971;28;19940;-55
2023/07/06 09:07:14;;;;;;;;;;;22.20;46.30;;;;;;5044682;28;19921;-57
2023/07/06 09:09:41;;;;;;;;;;;22.20;46.20;;;;;;5043449;28;19956;-57
2023/07/06 09:12:13;;;;;;;;;;;22.20;46.20;;;;;;5058527;28;19921;-58
2023/07/06 09:14:42;;;;;;;;;;;22.20;46.10;;;;;;5042588;28;19964;-56
2023/07/06 09:17:14;;;;;;;;;;;22.20;46.00;;;;;;5039508;28;19960;-55
2023/07/06 09:19:40;;;;;;;;;;;22.20;46.10;;;;;;5040735;28;19925;-56
2023/07/06 09:22:09;;;;;;;;;;;22.20;46.00;;;;;;5037412;28;19956;-57
2023/07/06 09:24:36;;;;;;;;;;;22.20;45.90;;;;;;5039466;28;19924;-52
2023/07/06 09:27:09;;;;;;;;;;;22.20;45.90;;;;;;5062626;28;20375;-57
2023/07/06 09:29:37;;;;;;;;;;;22.20;45.90;;;;;;5040551;28;19921;-56
2023/07/06 09:32:14;;;;;;;;;;;22.20;45.80;;;;;;5041639;28;19932;-55
2023/07/06 09:34:44;;;;;;;;;;;22.20;45.80;;;;;;5055081;28;19978;-55
2023/07/06 09:37:12;;;;;;;;;;;22.20;45.90;;;;;;5058101;28;20023;-56
2023/07/06 09:39:39;;;;;;;;;;;22.20;45.80;;;;;;5039716;28;19960;-57
2023/07/06 09:42:08;;;;;;;;;;;22.20;45.80;;;;;;5044225;28;19970;-54
2023/07/06 09:44:35;;;;;;;;;;;22.30;45.90;;;;;;5037811;28;20309;-56
2023/07/06 09:47:03;;;;;;;;;;;22.20;45.70;;;;;;5046574;28;19924;-56
2023/07/06 09:49:31;;;;;;;;;;;22.20;45.60;;;;;;5042830;28;19920;-56
2023/07/06 09:51:59;;;;;;;;;;;22.30;45.70;;;;;;5061583;28;19927;-55
2023/07/06 09:54:27;;;;;;;;;;;22.30;45.70;;;;;;5040633;28;19921;-55
2023/07/06 09:56:53;;;;;;;;;;;22.20;45.60;;;;;;5041017;28;20317;-57
2023/07/06 09:59:20;;;;;;;;;;;22.30;45.70;;;;;;5059074;28;20374;-57
2023/07/06 10:01:50;;;;;;;;;;;22.30;45.70;;;;;;5034309;28;20677;-55
2023/07/06 10:04:27;;;;;;;;;;;22.30;45.60;;;;;;5040036;28;19920;-58
2023/07/06 10:07:00;;;;;;;;;;;22.20;45.60;;;;;;5033177;28;19925;-56
2023/07/06 10:09:27;;;;;;;;;;;22.30;45.70;;;;;;5044178;28;19970;-55
2023/07/06 10:11:55;;;;;;;;;;;22.30;45.70;;;;;;5043301;28;19979;-55
2023/07/06 10:14:25;;;;;;;;;;;22.30;45.70;;;;;;5044935;28;19974;-57
2023/07/06 10:16:54;;;;;;;;;;;22.30;45.60;;;;;;5023963;28;19960;-57
2023/07/06 10:19:21;;;;;;;;;;;22.30;45.70;;;;;;5040863;28;19924;-57
2023/07/06 10:21:50;;;;;;;;;;;22.30;45.60;;;;;;5046337;28;20023;-59
2023/07/06 10:24:20;;;;;;;;;;;22.30;45.60;;;;;;5046203;28;20347;-54
2023/07/06 10:26:48;;;;;;;;;;;22.30;45.50;;;;;;5056722;28;20028;-56
2023/07/06 10:29:16;;;;;;;;;;;22.30;45.40;;;;;;5040813;28;20313;-57
2023/07/06 10:31:45;;;;;;;;;;;22.30;45.20;;;;;;5041269;28;20317;-56
2023/07/06 10:34:13;;;;;;;;;;;22.30;45.10;;;;;;5042372;28;19921;-56
2023/07/06 10:36:40;;;;;;;;;;;22.30;45.10;;;;;;5042713;28;20018;-56
2023/07/06 10:39:12;;;;;;;;;;;22.30;45.00;;;;;;5041223;28;19974;-56
2023/07/06 10:41:41;;;;;;;;;;;22.30;45.10;;;;;;5057843;28;19990;-56
2023/07/06 10:44:23;;;;;;;;;;;22.30;45.10;;;;;;5043996;28;19925;-57
2023/07/06 10:46:54;;;;;;;;;;;22.30;45.10;;;;;;5058510;28;19931;-55
2023/07/06 10:49:21;;;;;;;;;;;22.30;45.20;;;;;;5040851;28;19927;-54
2023/07/06 10:51:50;;;;;;;;;;;22.30;45.20;;;;;;5034206;28;19925;-57
2023/07/06 10:54:18;;;;;;;;;;;22.30;44.80;;;;;;5056874;28;19921;-56
2023/07/06 10:56:47;;;;;;;;;;;22.30;44.30;;;;;;5042057;28;19920;-55
2023/07/06 10:59:15;;;;;;;;;;;22.30;44.10;;;;;;5043693;28;20262;-54
2023/07/06 11:01:45;;;;;;;;;;;22.30;43.40;;;;;;5038296;28;19966;-55
2023/07/06 11:04:39;;;;;;;;;;;22.30;43.10;;;;;;5041142;28;19921;-55
2023/07/06 11:07:08;;;;;;;;;;;22.30;43.00;;;;;;5004108;28;19925;-55
2023/07/06 11:09:47;;;;;;;;;;;22.20;42.60;;;;;;5037662;28;20011;-54
2023/07/06 11:12:19;;;;;;;;;;;22.20;42.80;;;;;;5030524;28;19971;-57
2023/07/06 11:14:48;;;;;;;;;;;22.20;42.80;;;;;;5028998;28;19975;-56
2023/07/06 11:17:23;;;;;;;;;;;22.20;42.90;;;;;;5031790;28;19921;-53
2023/07/06 11:19:51;;;;;;;;;;;22.20;43.00;;;;;;5053170;28;19927;-55
2023/07/06 11:22:19;;;;;;;;;;;22.20;43.10;;;;;;5049647;28;19921;-56
2023/07/06 11:24:48;;;;;;;;;;;22.20;43.40;;;;;;5031966;28;19921;-54
2023/07/06 11:27:24;;;;;;;;;;;22.20;43.50;;;;;;5032075;28;20351;-55
2023/07/06 11:29:53;;;;;;;;;;;22.10;43.50;;;;;;5032282;28;19921;-56
2023/07/06 11:32:21;;;;;;;;;;;22.20;43.70;;;;;;5031502;28;19927;-57
2023/07/06 11:34:51;;;;;;;;;;;22.20;43.80;;;;;;5031829;28;19978;-55
2023/07/06 11:37:22;;;;;;;;;;;22.20;43.80;;;;;;5045724;28;19924;-55
2023/07/06 11:39:50;;;;;;;;;;;22.30;44.10;;;;;;5032275;28;19970;-57
2023/07/06 11:42:25;;;;;;;;;;;22.20;44.00;;;;;;5031966;28;20086;-56
2023/07/06 11:44:52;;;;;;;;;;;22.30;44.10;;;;;;5032346;28;19927;-56
2023/07/06 11:47:24;;;;;;;;;;;22.30;44.20;;;;;;5031245;28;19952;-55
2023/07/06 11:49:51;;;;;;;;;;;22.30;44.20;;;;;;5032997;28;20448;-56
2023/07/06 11:52:21;;;;;;;;;;;22.30;44.10;;;;;;5057663;28;19927;-56
2023/07/06 11:54:51;;;;;;;;;;;22.30;44.10;;;;;;5061898;28;20276;-56
2023/07/06 11:57:41;;;;;;;;;;;22.30;44.00;;;;;;5053827;28;20010;-57
2023/07/06 12:00:18;;;;;;;;;;;22.30;44.00;;;;;;5034862;28;20003;-54
2023/07/06 12:02:47;;;;;;;;;;;22.30;44.00;;;;;;5032589;28;19931;-57
2023/07/06 12:05:25;;;;;;;;;;;22.30;44.20;;;;;;5040184;28;19921;-57
2023/07/06 12:07:56;;;;;;;;;;;22.30;44.30;;;;;;5059021;28;19928;-56
2023/07/06 12:10:23;;;;;;;;;;;22.30;44.50;;;;;;5040887;28;19947;-58
2023/07/06 12:12:51;;;;;;;;;;;22.30;44.60;;;;;;5032193;28;19956;-58
2023/07/06 12:15:21;;;;;;;;;;;22.30;44.70;;;;;;5053667;28;19920;-57
2023/07/06 12:17:48;;;;;;;;;;;22.30;44.80;;;;;;5035392;28;19933;-57
2023/07/06 12:20:16;;;;;;;;;;;22.30;44.80;;;;;;5038116;28;19927;-57
2023/07/06 12:22:52;;;;;;;;;;;22.30;44.80;;;;;;5034541;28;20012;-56
2023/07/06 12:25:19;;;;;;;;;;;22.30;44.80;;;;;;5034314;28;19925;-57
2023/07/06 12:27:46;;;;;;;;;;;22.30;44.90;;;;;;5043194;28;19921;-57
2023/07/06 12:30:14;;;;;;;;;;;22.30;44.90;;;;;;5039571;28;19921;-57
2023/07/06 12:32:43;;;;;;;;;;;22.30;44.90;;;;;;5033732;28;20016;-56
2023/07/06 12:35:11;;;;;;;;;;;22.30;44.90;;;;;;5031151;28;19920;-56
2023/07/06 12:37:41;;;;;;;;;;;22.30;44.90;;;;;;5044907;28;19959;-56
2023/07/06 12:40:17;;;;;;;;;;;22.30;44.90;;;;;;5044497;28;19925;-57
2023/07/06 12:42:44;;;;;;;;;;;22.30;45.00;;;;;;5055603;28;19928;-57
2023/07/06 12:45:14;;;;;;;;;;;22.30;45.10;;;;;;5034677;28;19921;-58
2023/07/06 12:47:43;;;;;;;;;;;22.30;45.20;;;;;;5034314;28;19928;-56
2023/07/06 12:50:10;;;;;;;;;;;22.30;45.30;;;;;;5036301;28;19921;-58
2023/07/06 12:52:37;;;;;;;;;;;22.30;45.30;;;;;;5037038;28;19927;-58
2023/07/06 12:55:05;;;;;;;;;;;22.40;45.40;;;;;;5037236;28;19921;-59
2023/07/06 12:57:35;;;;;;;;;;;22.40;45.40;;;;;;5049040;28;20130;-56
2023/07/06 13:00:08;;;;;;;;;;;22.40;45.50;;;;;;5046684;28;19920;-57
2023/07/06 13:02:36;;;;;;;;;;;22.40;45.50;;;;;;5041773;28;19920;-57
2023/07/06 13:05:14;;;;;;;;;;;22.40;45.50;;;;;;5056530;28;19921;-58
2023/07/06 13:07:41;;;;;;;;;;;22.40;45.50;;;;;;5055807;28;19927;-58
2023/07/06 13:10:13;;;;;;;;;;;22.30;45.40;;;;;;5041358;28;19946;-58
2023/07/06 13:12:42;;;;;;;;;;;22.40;45.50;;;;;;5045551;28;19970;-58
2023/07/06 13:15:14;;;;;;;;;;;22.40;45.50;;;;;;5042485;28;19986;-58
2023/07/06 13:17:47;;;;;;;;;;;22.40;46.10;;;;;;5041295;28;20375;-58
2023/07/06 13:20:16;;;;;;;;;;;22.40;45.40;;;;;;5039557;28;19984;-56
2023/07/06 13:22:43;;;;;;;;;;;22.40;45.40;;;;;;5058596;28;19927;-56
2023/07/06 13:25:17;;;;;;;;;;;22.40;45.40;;;;;;5065264;28;19924;-59
2023/07/06 13:27:45;;;;;;;;;;;22.40;45.40;;;;;;5043219;28;19920;-57
2023/07/06 13:30:12;;;;;;;;;;;22.40;45.40;;;;;;5040454;28;19967;-59
2023/07/06 13:32:40;;;;;;;;;;;22.40;45.40;;;;;;5039883;28;19931;-55
2023/07/06 13:35:07;;;;;;;;;;;22.40;45.40;;;;;;5043305;28;19920;-58
2023/07/06 13:37:40;;;;;;;;;;;22.40;45.50;;;;;;5041531;28;19978;-58
2023/07/06 13:40:08;;;;;;;;;;;22.40;45.50;;;;;;5039641;28;19921;-58
2023/07/06 13:42:35;;;;;;;;;;;22.40;45.50;;;;;;5039636;28;19951;-58
2023/07/06 13:45:02;;;;;;;;;;;22.50;45.70;;;;;;5045649;28;19925;-57
2023/07/06 13:47:29;;;;;;;;;;;22.50;45.70;;;;;;5040790;28;20031;-58
2023/07/06 13:49:57;;;;;;;;;;;22.50;45.70;;;;;;5041603;28;19944;-58
2023/07/06 13:52:23;;;;;;;;;;;22.50;45.80;;;;;;5041989;28;19986;-57
2023/07/06 13:54:52;;;;;;;;;;;22.50;45.80;;;;;;5044755;28;19931;-56
2023/07/06 13:57:20;;;;;;;;;;;22.50;45.80;;;;;;5046048;28;20294;-58
2023/07/06 13:59:47;;;;;;;;;;;22.50;46.00;;;;;;5041381;28;20224;-56
2023/07/06 14:02:14;;;;;;;;;;;22.50;45.90;;;;;;5038714;28;19921;-57
2023/07/06 14:04:42;;;;;;;;;;;22.50;45.90;;;;;;5040841;28;19959;-57
2023/07/06 14:07:09;;;;;;;;;;;22.50;45.70;;;;;;5064052;28;19924;-57
2023/07/06 14:09:36;;;;;;;;;;;22.50;45.50;;;;;;5044135;28;19920;-57
2023/07/06 14:12:06;;;;;;;;;;;22.50;45.50;;;;;;5041047;28;19921;-56
2023/07/06 14:14:33;;;;;;;;;;;22.50;45.40;;;;;;5060702;28;19920;-55
2023/07/06 14:17:00;;;;;;;;;;;22.50;45.40;;;;;;5038258;28;19952;-55
2023/07/06 14:19:27;;;;;;;;;;;22.50;45.70;;;;;;5043969;28;20286;-56
2023/07/06 14:21:54;;;;;;;;;;;22.50;45.90;;;;;;5039849;28;19951;-56
2023/07/06 14:24:21;;;;;;;;;;;22.50;46.00;;;;;;5061425;28;19925;-55